sensor_id;sensor_type;location;lat;lon;timestamp;pressure;altitude;pressure_sealevel;temperature;humidity
29247;BME280;16272;48.188;9.964;2023-03-11T00:01:11;94658.44;;;4.30;61.02
29247;BME280;16272;48.188;9.964;2023-03-11T00:03:36;94644.91;;;3.95;60.72
29247;BME280;16272;48.188;9.964;2023-03-11T00:06:02;94648.75;;;4.20;60.93
29247;BME280;16272;48.188;9.964;2023-03-11T00:08:29;94653.97;;;4.40;59.97
29247;BME280;16272;48.188;9.964;2023-03-11T00:10:56;94652.59;;;4.36;59.50
29247;BME280;16272;48.188;9.964;2023-03-11T00:13:23;94654.81;;;4.31;59.95
29247;BME280;16272;48.188;9.964;2023-03-11T00:15:50;94636.84;;;4.26;58.61
29247;BME280;16272;48.188;9.964;2023-03-11T00:18:17;94646.28;;;3.90;58.54
29247;BME280;16272;48.188;9.964;2023-03-11T00:20:44;94658.19;;;4.60;57.79
29247;BME280;16272;48.188;9.964;2023-03-11T00:23:11;94652.34;;;4.19;57.86
29247;BME280;16272;48.188;9.964;2023-03-11T00:25:37;94653.19;;;4.20;58.46
29247;BME280;16272;48.188;9.964;2023-03-11T00:28:03;94663.94;;;4.36;57.78
29247;BME280;16272;48.188;9.964;2023-03-11T00:30:31;94678.03;;;4.35;57.93
29247;BME280;16272;48.188;9.964;2023-03-11T00:32:58;94681.50;;;4.36;58.23
29247;BME280;16272;48.188;9.964;2023-03-11T00:35:26;94685.53;;;4.30;57.54
29247;BME280;16272;48.188;9.964;2023-03-11T00:37:54;94675.03;;;4.11;58.19
29247;BME280;16272;48.188;9.964;2023-03-11T00:40:21;94696.34;;;4.08;57.83
29247;BME280;16272;48.188;9.964;2023-03-11T00:42:47;94693.56;;;4.29;57.67
29247;BME280;16272;48.188;9.964;2023-03-11T00:45:13;94688.03;;;4.12;56.79
29247;BME280;16272;48.188;9.964;2023-03-11T00:47:39;94689.00;;;3.92;58.11
29247;BME280;16272;48.188;9.964;2023-03-11T00:50:06;94685.69;;;4.09;57.67
29247;BME280;16272;48.188;9.964;2023-03-11T00:52:31;94693.16;;;4.04;57.33
29247;BME280;16272;48.188;9.964;2023-03-11T00:54:58;94690.53;;;4.04;57.24
29247;BME280;16272;48.188;9.964;2023-03-11T00:57:23;94695.66;;;4.15;57.04
29247;BME280;16272;48.188;9.964;2023-03-11T00:59:49;94702.97;;;3.82;58.07
29247;BME280;16272;48.188;9.964;2023-03-11T01:02:15;94691.91;;;3.89;56.27
29247;BME280;16272;48.188;9.964;2023-03-11T01:04:40;94688.44;;;4.08;56.68
29247;BME280;16272;48.188;9.964;2023-03-11T01:07:05;94688.44;;;3.98;55.84
29247;BME280;16272;48.188;9.964;2023-03-11T01:09:31;94680.69;;;3.77;54.98
29247;BME280;16272;48.188;9.964;2023-03-11T01:11:56;94675.88;;;3.53;55.76
29247;BME280;16272;48.188;9.964;2023-03-11T01:14:21;94677.34;;;3.45;55.26
29247;BME280;16272;48.188;9.964;2023-03-11T01:16:47;94694.13;;;3.93;55.12
29247;BME280;16272;48.188;9.964;2023-03-11T01:19:12;94689.97;;;3.61;54.94
29247;BME280;16272;48.188;9.964;2023-03-11T01:21:38;94690.63;;;3.54;55.48
29247;BME280;16272;48.188;9.964;2023-03-11T01:24:04;94694.09;;;3.64;55.63
29247;BME280;16272;48.188;9.964;2023-03-11T01:26:29;94679.41;;;3.32;54.89
29247;BME280;16272;48.188;9.964;2023-03-11T01:28:54;94689.38;;;3.38;55.38
29247;BME280;16272;48.188;9.964;2023-03-11T01:31:20;94692.44;;;3.63;54.99
29247;BME280;16272;48.188;9.964;2023-03-11T01:33:45;94688.81;;;3.54;55.26
29247;BME280;16272;48.188;9.964;2023-03-11T01:36:10;94680.00;;;3.65;55.19
29247;BME280;16272;48.188;9.964;2023-03-11T01:38:36;94680.25;;;3.42;55.64
29247;BME280;16272;48.188;9.964;2023-03-11T01:41:01;94680.91;;;3.15;56.10
29247;BME280;16272;48.188;9.964;2023-03-11T01:46:17;94675.88;;;3.02;55.87
29247;BME280;16272;48.188;9.964;2023-03-11T01:49:03;94680.28;;;3.62;56.15
29247;BME280;16272;48.188;9.964;2023-03-11T01:51:37;94688.00;;;3.54;55.90
29247;BME280;16272;48.188;9.964;2023-03-11T01:54:06;94689.91;;;3.32;56.27
29247;BME280;16272;48.188;9.964;2023-03-11T01:56:35;94678.56;;;3.22;56.54
29247;BME280;16272;48.188;9.964;2023-03-11T01:59:03;94698.00;;;3.19;56.63
29247;BME280;16272;48.188;9.964;2023-03-11T02:01:28;94693.75;;;3.18;56.92
29247;BME280;16272;48.188;9.964;2023-03-11T02:03:55;94689.06;;;3.22;56.90
29247;BME280;16272;48.188;9.964;2023-03-11T02:06:22;94701.19;;;3.23;57.05
29247;BME280;16272;48.188;9.964;2023-03-11T02:08:49;94696.19;;;3.00;56.84
29247;BME280;16272;48.188;9.964;2023-03-11T02:11:19;94703.41;;;3.18;56.17
29247;BME280;16272;48.188;9.964;2023-03-11T02:13:47;94706.13;;;3.06;55.37
29247;BME280;16272;48.188;9.964;2023-03-11T02:16:13;94704.50;;;3.15;55.79
29247;BME280;16272;48.188;9.964;2023-03-11T02:18:39;94702.13;;;2.71;56.73
29247;BME280;16272;48.188;9.964;2023-03-11T02:21:12;94713.09;;;2.86;55.82
29247;BME280;16272;48.188;9.964;2023-03-11T02:26:36;94707.25;;;3.13;56.38
29247;BME280;16272;48.188;9.964;2023-03-11T02:29:06;94710.66;;;2.73;56.90
29247;BME280;16272;48.188;9.964;2023-03-11T02:31:35;94719.88;;;2.89;56.70
29247;BME280;16272;48.188;9.964;2023-03-11T02:34:04;94706.22;;;2.95;55.85
29247;BME280;16272;48.188;9.964;2023-03-11T02:36:35;94708.59;;;2.67;57.08
29247;BME280;16272;48.188;9.964;2023-03-11T02:39:02;94707.63;;;2.68;57.17
29247;BME280;16272;48.188;9.964;2023-03-11T02:41:29;94708.13;;;2.62;56.72
29247;BME280;16272;48.188;9.964;2023-03-11T02:43:55;94711.97;;;3.20;56.34
29247;BME280;16272;48.188;9.964;2023-03-11T02:46:21;94720.34;;;2.73;56.71
29247;BME280;16272;48.188;9.964;2023-03-11T02:48:47;94725.97;;;2.47;56.91
29247;BME280;16272;48.188;9.964;2023-03-11T02:51:13;94734.75;;;2.88;56.82
29247;BME280;16272;48.188;9.964;2023-03-11T02:53:45;94722.06;;;2.84;56.71
29247;BME280;16272;48.188;9.964;2023-03-11T02:56:11;94725.63;;;2.83;57.00
29247;BME280;16272;48.188;9.964;2023-03-11T02:58:36;94719.16;;;2.87;56.97
29247;BME280;16272;48.188;9.964;2023-03-11T03:01:02;94732.06;;;2.48;57.65
29247;BME280;16272;48.188;9.964;2023-03-11T03:03:27;94726.34;;;2.43;58.15
29247;BME280;16272;48.188;9.964;2023-03-11T03:05:52;94729.38;;;2.17;58.84
29247;BME280;16272;48.188;9.964;2023-03-11T03:08:18;94730.16;;;2.50;58.03
29247;BME280;16272;48.188;9.964;2023-03-11T03:10:43;94729.19;;;2.30;58.43
29247;BME280;16272;48.188;9.964;2023-03-11T03:13:09;94732.50;;;2.53;58.22
29247;BME280;16272;48.188;9.964;2023-03-11T03:15:34;94731.28;;;2.57;57.58
29247;BME280;16272;48.188;9.964;2023-03-11T03:17:59;94726.34;;;2.64;58.02
29247;BME280;16272;48.188;9.964;2023-03-11T03:20:25;94711.28;;;2.56;58.27
29247;BME280;16272;48.188;9.964;2023-03-11T03:22:51;94740.75;;;2.69;58.26
29247;BME280;16272;48.188;9.964;2023-03-11T03:25:16;94736.41;;;2.37;58.47
29247;BME280;16272;48.188;9.964;2023-03-11T03:27:41;94741.00;;;2.24;59.13
29247;BME280;16272;48.188;9.964;2023-03-11T03:30:07;94745.56;;;2.43;58.90
29247;BME280;16272;48.188;9.964;2023-03-11T03:32:33;94749.09;;;2.21;58.74
29247;BME280;16272;48.188;9.964;2023-03-11T03:34:58;94748.16;;;2.22;58.38
29247;BME280;16272;48.188;9.964;2023-03-11T03:37:25;94738.00;;;2.50;58.79
29247;BME280;16272;48.188;9.964;2023-03-11T03:39:51;94728.06;;;2.11;59.07
29247;BME280;16272;48.188;9.964;2023-03-11T03:42:17;94723.69;;;2.12;59.42
29247;BME280;16272;48.188;9.964;2023-03-11T03:44:42;94740.34;;;2.11;59.35
29247;BME280;16272;48.188;9.964;2023-03-11T03:47:08;94726.06;;;2.15;59.85
29247;BME280;16272;48.188;9.964;2023-03-11T03:49:33;94728.66;;;1.94;59.83
29247;BME280;16272;48.188;9.964;2023-03-11T03:51:58;94741.56;;;2.07;58.94
29247;BME280;16272;48.188;9.964;2023-03-11T03:54:23;94743.91;;;2.10;59.41
29247;BME280;16272;48.188;9.964;2023-03-11T03:56:49;94741.69;;;2.26;59.42
29247;BME280;16272;48.188;9.964;2023-03-11T03:59:14;94740.59;;;1.75;60.53
29247;BME280;16272;48.188;9.964;2023-03-11T04:01:39;94728.53;;;1.95;60.23
29247;BME280;16272;48.188;9.964;2023-03-11T04:04:05;94734.13;;;2.23;59.11
29247;BME280;16272;48.188;9.964;2023-03-11T04:06:30;94737.34;;;1.94;59.91
29247;BME280;16272;48.188;9.964;2023-03-11T04:08:56;94736.38;;;1.95;60.09
29247;BME280;16272;48.188;9.964;2023-03-11T04:11:21;94738.03;;;1.96;59.86
29247;BME280;16272;48.188;9.964;2023-03-11T04:13:47;94753.97;;;2.26;59.46
29247;BME280;16272;48.188;9.964;2023-03-11T04:16:21;94764.75;;;2.11;59.39
29247;BME280;16272;48.188;9.964;2023-03-11T04:18:47;94762.84;;;2.34;58.61
29247;BME280;16272;48.188;9.964;2023-03-11T04:21:13;94769.53;;;2.38;58.93
29247;BME280;16272;48.188;9.964;2023-03-11T04:23:39;94761.72;;;2.48;59.17
29247;BME280;16272;48.188;9.964;2023-03-11T04:26:04;94770.09;;;2.42;59.14
29247;BME280;16272;48.188;9.964;2023-03-11T04:28:30;94785.00;;;2.42;59.26
29247;BME280;16272;48.188;9.964;2023-03-11T04:30:56;94787.44;;;2.54;59.89
29247;BME280;16272;48.188;9.964;2023-03-11T04:33:21;94782.91;;;2.24;59.92
29247;BME280;16272;48.188;9.964;2023-03-11T04:35:47;94781.94;;;2.57;59.32
29247;BME280;16272;48.188;9.964;2023-03-11T04:38:12;94786.06;;;2.39;59.34
29247;BME280;16272;48.188;9.964;2023-03-11T04:40:37;94785.56;;;2.45;58.74
29247;BME280;16272;48.188;9.964;2023-03-11T04:43:03;94789.06;;;2.34;59.70
29247;BME280;16272;48.188;9.964;2023-03-11T04:45:28;94787.25;;;2.67;59.01
29247;BME280;16272;48.188;9.964;2023-03-11T04:47:54;94787.75;;;2.82;58.55
29247;BME280;16272;48.188;9.964;2023-03-11T04:50:20;94773.72;;;2.51;59.08
29247;BME280;16272;48.188;9.964;2023-03-11T04:52:46;94772.75;;;2.31;59.11
29247;BME280;16272;48.188;9.964;2023-03-11T04:55:11;94785.19;;;2.50;57.81
29247;BME280;16272;48.188;9.964;2023-03-11T04:57:39;94770.91;;;2.43;58.62
29247;BME280;16272;48.188;9.964;2023-03-11T05:00:04;94768.03;;;2.25;58.63
29247;BME280;16272;48.188;9.964;2023-03-11T05:02:34;94766.53;;;2.11;58.10
29247;BME280;16272;48.188;9.964;2023-03-11T05:05:00;94775.44;;;1.87;59.15
29247;BME280;16272;48.188;9.964;2023-03-11T05:07:25;94770.38;;;2.07;58.37
29247;BME280;16272;48.188;9.964;2023-03-11T05:09:51;94776.84;;;2.24;57.54
29247;BME280;16272;48.188;9.964;2023-03-11T05:12:16;94785.13;;;1.64;57.18
29247;BME280;16272;48.188;9.964;2023-03-11T05:14:41;94795.22;;;1.80;57.48
29247;BME280;16272;48.188;9.964;2023-03-11T05:17:07;94793.75;;;1.98;57.08
29247;BME280;16272;48.188;9.964;2023-03-11T05:19:32;94807.78;;;1.97;57.43
29247;BME280;16272;48.188;9.964;2023-03-11T05:22:02;94810.69;;;1.83;57.12
29247;BME280;16272;48.188;9.964;2023-03-11T05:24:27;94807.44;;;1.91;57.24
29247;BME280;16272;48.188;9.964;2023-03-11T05:26:53;94803.22;;;1.56;57.62
29247;BME280;16272;48.188;9.964;2023-03-11T05:29:19;94796.91;;;1.70;57.31
29247;BME280;16272;48.188;9.964;2023-03-11T05:31:44;94802.63;;;1.52;58.04
29247;BME280;16272;48.188;9.964;2023-03-11T05:34:11;94804.09;;;1.34;58.74
29247;BME280;16272;48.188;9.964;2023-03-11T05:36:36;94809.19;;;1.24;58.11
29247;BME280;16272;48.188;9.964;2023-03-11T05:39:02;94809.31;;;1.56;58.53
29247;BME280;16272;48.188;9.964;2023-03-11T05:41:27;94815.72;;;1.41;58.50
29247;BME280;16272;48.188;9.964;2023-03-11T05:43:52;94820.56;;;1.79;57.91
29247;BME280;16272;48.188;9.964;2023-03-11T05:46:18;94835.00;;;1.40;57.63
29247;BME280;16272;48.188;9.964;2023-03-11T05:48:45;94825.59;;;1.60;57.56
29247;BME280;16272;48.188;9.964;2023-03-11T05:51:10;94835.13;;;1.50;58.00
29247;BME280;16272;48.188;9.964;2023-03-11T05:53:36;94844.75;;;1.49;58.60
29247;BME280;16272;48.188;9.964;2023-03-11T05:56:02;94850.59;;;1.53;58.03
29247;BME280;16272;48.188;9.964;2023-03-11T05:58:28;94847.94;;;1.64;58.60
29247;BME280;16272;48.188;9.964;2023-03-11T06:00:53;94850.94;;;1.37;57.58
29247;BME280;16272;48.188;9.964;2023-03-11T06:03:19;94842.97;;;1.38;57.67
29247;BME280;16272;48.188;9.964;2023-03-11T06:05:45;94829.06;;;1.26;57.76
29247;BME280;16272;48.188;9.964;2023-03-11T06:08:11;94825.25;;;1.53;56.92
29247;BME280;16272;48.188;9.964;2023-03-11T06:10:36;94841.53;;;1.45;58.00
29247;BME280;16272;48.188;9.964;2023-03-11T06:13:02;94830.34;;;1.77;57.00
29247;BME280;16272;48.188;9.964;2023-03-11T06:15:27;94830.66;;;1.95;56.09
29247;BME280;16272;48.188;9.964;2023-03-11T06:17:52;94827.63;;;2.00;55.90
29247;BME280;16272;48.188;9.964;2023-03-11T06:20:18;94824.31;;;1.98;55.15
29247;BME280;16272;48.188;9.964;2023-03-11T06:22:43;94824.31;;;1.98;55.10
29247;BME280;16272;48.188;9.964;2023-03-11T06:25:09;94827.91;;;1.97;53.84
29247;BME280;16272;48.188;9.964;2023-03-11T06:27:34;94828.25;;;2.04;54.03
29247;BME280;16272;48.188;9.964;2023-03-11T06:29:59;94832.00;;;2.22;53.96
29247;BME280;16272;48.188;9.964;2023-03-11T06:32:25;94846.03;;;2.21;53.95
29247;BME280;16272;48.188;9.964;2023-03-11T06:34:51;94856.81;;;2.92;52.04
29247;BME280;16272;48.188;9.964;2023-03-11T06:37:17;94856.28;;;2.24;53.70
29247;BME280;16272;48.188;9.964;2023-03-11T06:39:42;94864.56;;;1.97;53.43
29247;BME280;16272;48.188;9.964;2023-03-11T06:42:09;94865.19;;;2.33;53.68
29247;BME280;16272;48.188;9.964;2023-03-11T06:44:34;94855.78;;;2.63;52.45
29247;BME280;16272;48.188;9.964;2023-03-11T06:47:01;94870.50;;;2.96;51.32
29247;BME280;16272;48.188;9.964;2023-03-11T06:49:27;94867.34;;;2.16;52.86
29247;BME280;16272;48.188;9.964;2023-03-11T06:51:52;94868.31;;;2.80;51.80
29247;BME280;16272;48.188;9.964;2023-03-11T06:54:17;94873.19;;;2.31;53.45
29247;BME280;16272;48.188;9.964;2023-03-11T06:56:43;94877.22;;;2.24;52.79
29247;BME280;16272;48.188;9.964;2023-03-11T06:59:08;94880.72;;;2.46;51.71
29247;BME280;16272;48.188;9.964;2023-03-11T07:01:33;94887.22;;;2.30;52.10
29247;BME280;16272;48.188;9.964;2023-03-11T07:03:59;94897.41;;;2.01;52.69
29247;BME280;16272;48.188;9.964;2023-03-11T07:06:25;94906.09;;;1.90;52.48
29247;BME280;16272;48.188;9.964;2023-03-11T07:08:52;94899.56;;;2.72;50.83
29247;BME280;16272;48.188;9.964;2023-03-11T07:11:20;94911.38;;;2.34;51.48
29247;BME280;16272;48.188;9.964;2023-03-11T07:13:46;94918.84;;;2.50;52.25
29247;BME280;16272;48.188;9.964;2023-03-11T07:16:14;94919.03;;;3.54;50.34
29247;BME280;16272;48.188;9.964;2023-03-11T07:18:41;94919.91;;;3.64;49.99
29247;BME280;16272;48.188;9.964;2023-03-11T07:21:07;94918.03;;;3.24;50.78
29247;BME280;16272;48.188;9.964;2023-03-11T07:23:33;94929.22;;;3.47;50.61
29247;BME280;16272;48.188;9.964;2023-03-11T07:25:58;94942.31;;;2.51;52.32
29247;BME280;16272;48.188;9.964;2023-03-11T07:28:24;94933.44;;;2.31;51.88
29247;BME280;16272;48.188;9.964;2023-03-11T07:30:51;94939.38;;;2.45;52.48
29247;BME280;16272;48.188;9.964;2023-03-11T07:33:17;94939.56;;;2.85;51.67
29247;BME280;16272;48.188;9.964;2023-03-11T07:35:43;94933.81;;;2.59;51.58
29247;BME280;16272;48.188;9.964;2023-03-11T07:38:09;94929.44;;;2.92;50.91
29247;BME280;16272;48.188;9.964;2023-03-11T07:40:34;94946.00;;;2.92;51.15
29247;BME280;16272;48.188;9.964;2023-03-11T07:43:00;94939.47;;;3.08;51.12
29247;BME280;16272;48.188;9.964;2023-03-11T07:45:25;94944.03;;;3.48;50.79
29247;BME280;16272;48.188;9.964;2023-03-11T07:47:50;94947.16;;;3.21;51.86
29247;BME280;16272;48.188;9.964;2023-03-11T07:50:16;94958.84;;;2.63;52.71
29247;BME280;16272;48.188;9.964;2023-03-11T07:52:42;94955.44;;;2.84;52.62
29247;BME280;16272;48.188;9.964;2023-03-11T07:55:08;94958.22;;;3.24;52.93
29247;BME280;16272;48.188;9.964;2023-03-11T07:57:33;94957.97;;;3.06;51.60
29247;BME280;16272;48.188;9.964;2023-03-11T07:59:59;94947.16;;;3.21;51.58
29247;BME280;16272;48.188;9.964;2023-03-11T08:02:24;94960.97;;;2.69;51.18
29247;BME280;16272;48.188;9.964;2023-03-11T08:04:50;94938.16;;;3.13;52.24
29247;BME280;16272;48.188;9.964;2023-03-11T08:07:15;94958.88;;;3.90;51.20
29247;BME280;16272;48.188;9.964;2023-03-11T08:09:40;94962.75;;;3.01;51.16
29247;BME280;16272;48.188;9.964;2023-03-11T08:12:06;94972.84;;;3.90;50.25
29247;BME280;16272;48.188;9.964;2023-03-11T08:14:32;94972.06;;;3.47;50.24
29247;BME280;16272;48.188;9.964;2023-03-11T08:16:57;94957.56;;;2.90;50.85
29247;BME280;16272;48.188;9.964;2023-03-11T08:19:22;94971.50;;;3.96;50.07
29247;BME280;16272;48.188;9.964;2023-03-11T08:21:47;94976.16;;;2.87;51.08
29247;BME280;16272;48.188;9.964;2023-03-11T08:24:13;94970.66;;;2.90;51.17
29247;BME280;16272;48.188;9.964;2023-03-11T08:26:39;94971.41;;;3.76;49.21
29247;BME280;16272;48.188;9.964;2023-03-11T08:29:05;94974.34;;;3.62;49.59
29247;BME280;16272;48.188;9.964;2023-03-11T08:31:32;94969.88;;;3.10;49.96
29247;BME280;16272;48.188;9.964;2023-03-11T08:34:00;94986.13;;;3.04;50.22
29247;BME280;16272;48.188;9.964;2023-03-11T08:36:26;94992.72;;;2.44;49.65
29247;BME280;16272;48.188;9.964;2023-03-11T08:38:52;94973.69;;;4.21;48.71
29247;BME280;16272;48.188;9.964;2023-03-11T08:41:18;94976.41;;;3.79;47.97
29247;BME280;16272;48.188;9.964;2023-03-11T08:43:44;94968.97;;;5.24;47.44
29247;BME280;16272;48.188;9.964;2023-03-11T08:46:14;94972.47;;;5.15;46.93
29247;BME280;16272;48.188;9.964;2023-03-11T08:48:41;94983.97;;;3.52;46.96
29247;BME280;16272;48.188;9.964;2023-03-11T08:51:13;94979.81;;;5.88;48.34
29247;BME280;16272;48.188;9.964;2023-03-11T08:53:39;94973.00;;;6.05;45.25
29247;BME280;16272;48.188;9.964;2023-03-11T08:56:05;94971.16;;;4.70;46.23
29247;BME280;16272;48.188;9.964;2023-03-11T08:58:30;94983.00;;;4.45;48.31
29247;BME280;16272;48.188;9.964;2023-03-11T09:00:56;94995.13;;;3.96;48.36
29247;BME280;16272;48.188;9.964;2023-03-11T09:03:21;94998.81;;;4.55;47.21
29247;BME280;16272;48.188;9.964;2023-03-11T09:05:47;94990.28;;;4.72;46.56
29247;BME280;16272;48.188;9.964;2023-03-11T09:08:12;94988.00;;;6.04;46.52
29247;BME280;16272;48.188;9.964;2023-03-11T09:10:37;94974.75;;;6.97;42.91
29247;BME280;16272;48.188;9.964;2023-03-11T09:13:03;94976.25;;;5.99;44.86
29247;BME280;16272;48.188;9.964;2023-03-11T09:15:28;94979.63;;;3.93;46.63
29247;BME280;16272;48.188;9.964;2023-03-11T09:17:53;94985.53;;;4.56;47.10
29247;BME280;16272;48.188;9.964;2023-03-11T09:20:20;94992.53;;;3.96;48.10
29247;BME280;16272;48.188;9.964;2023-03-11T09:22:45;94995.28;;;5.63;45.26
29247;BME280;16272;48.188;9.964;2023-03-11T09:25:12;95000.16;;;3.36;47.16
29247;BME280;16272;48.188;9.964;2023-03-11T09:27:37;95007.22;;;5.19;46.41
29247;BME280;16272;48.188;9.964;2023-03-11T09:30:03;95010.03;;;4.16;46.63
29247;BME280;16272;48.188;9.964;2023-03-11T09:32:29;95009.28;;;4.04;46.26
29247;BME280;16272;48.188;9.964;2023-03-11T09:34:54;95008.47;;;3.41;45.89
29247;BME280;16272;48.188;9.964;2023-03-11T09:37:19;95011.69;;;4.17;44.42
29247;BME280;16272;48.188;9.964;2023-03-11T09:39:45;95015.41;;;4.55;44.62
29247;BME280;16272;48.188;9.964;2023-03-11T09:42:27;95008.72;;;5.11;44.14
29247;BME280;16272;48.188;9.964;2023-03-11T09:45:20;95011.22;;;5.62;42.59
29247;BME280;16272;48.188;9.964;2023-03-11T09:55:32;95007.88;;;6.36;41.67
29247;BME280;16272;48.188;9.964;2023-03-11T09:58:03;95012.63;;;5.27;42.22
29247;BME280;16272;48.188;9.964;2023-03-11T10:00:33;95016.81;;;6.81;44.12
29247;BME280;16272;48.188;9.964;2023-03-11T10:03:00;95008.56;;;7.12;41.95
29247;BME280;16272;48.188;9.964;2023-03-11T10:05:27;95017.75;;;6.62;42.08
29247;BME280;16272;48.188;9.964;2023-03-11T10:08:20;95019.66;;;6.70;45.53
29247;BME280;16272;48.188;9.964;2023-03-11T10:10:53;95023.34;;;7.59;42.27
29247;BME280;16272;48.188;9.964;2023-03-11T10:13:31;95028.66;;;8.03;40.96
29247;BME280;16272;48.188;9.964;2023-03-11T10:16:12;95025.28;;;7.93;41.48
29247;BME280;16272;48.188;9.964;2023-03-11T10:21:34;95019.72;;;8.30;41.11
29247;BME280;16272;48.188;9.964;2023-03-11T10:27:00;95036.59;;;5.53;42.14
29247;BME280;16272;48.188;9.964;2023-03-11T10:29:39;95020.88;;;7.39;43.54
29247;BME280;16272;48.188;9.964;2023-03-11T10:32:23;95020.34;;;9.85;39.32
29247;BME280;16272;48.188;9.964;2023-03-11T10:35:15;95025.84;;;6.51;42.68
29247;BME280;16272;48.188;9.964;2023-03-11T10:37:52;95015.91;;;6.90;43.75
29247;BME280;16272;48.188;9.964;2023-03-11T10:40:33;95036.22;;;6.62;38.16
29247;BME280;16272;48.188;9.964;2023-03-11T10:43:05;95024.81;;;7.35;40.05
29247;BME280;16272;48.188;9.964;2023-03-11T10:45:40;95021.91;;;7.82;43.36
29247;BME280;16272;48.188;9.964;2023-03-11T10:48:13;95016.13;;;8.39;41.85
29247;BME280;16272;48.188;9.964;2023-03-11T10:50:54;95019.06;;;8.97;40.57
29247;BME280;16272;48.188;9.964;2023-03-11T10:53:21;95016.50;;;7.66;43.35
29247;BME280;16272;48.188;9.964;2023-03-11T10:55:51;95011.44;;;7.99;42.56
29247;BME280;16272;48.188;9.964;2023-03-11T10:58:22;95014.88;;;7.73;40.19
29247;BME280;16272;48.188;9.964;2023-03-11T11:01:03;95018.06;;;8.03;40.08
29247;BME280;16272;48.188;9.964;2023-03-11T11:03:29;95011.75;;;8.48;40.16
29247;BME280;16272;48.188;9.964;2023-03-11T11:06:04;95005.78;;;7.49;42.24
29247;BME280;16272;48.188;9.964;2023-03-11T11:08:30;95003.34;;;7.74;39.46
29247;BME280;16272;48.188;9.964;2023-03-11T11:11:01;95006.22;;;7.63;40.82
29247;BME280;16272;48.188;9.964;2023-03-11T11:13:29;95005.22;;;7.46;41.67
29247;BME280;16272;48.188;9.964;2023-03-11T11:18:40;94998.25;;;7.81;41.40
29247;BME280;16272;48.188;9.964;2023-03-11T11:21:10;95014.50;;;5.93;41.90
29247;BME280;16272;48.188;9.964;2023-03-11T11:23:49;95001.84;;;7.98;41.31
29247;BME280;16272;48.188;9.964;2023-03-11T11:26:22;95001.19;;;7.96;40.25
29247;BME280;16272;48.188;9.964;2023-03-11T11:29:12;95011.47;;;6.35;40.66
29247;BME280;16272;48.188;9.964;2023-03-11T11:31:43;95011.53;;;6.25;40.36
29247;BME280;16272;48.188;9.964;2023-03-11T11:34:33;95005.09;;;7.47;41.97
29247;BME280;16272;48.188;9.964;2023-03-11T11:37:00;94996.63;;;8.75;39.70
29247;BME280;16272;48.188;9.964;2023-03-11T11:39:31;94999.66;;;8.19;40.67
29247;BME280;16272;48.188;9.964;2023-03-11T11:41:58;95012.59;;;6.33;41.40
29247;BME280;16272;48.188;9.964;2023-03-11T11:44:30;95007.75;;;5.71;42.14
29247;BME280;16272;48.188;9.964;2023-03-11T11:46:59;94998.69;;;5.93;40.24
29247;BME280;16272;48.188;9.964;2023-03-11T11:49:30;94999.84;;;5.81;42.17
29247;BME280;16272;48.188;9.964;2023-03-11T11:52:15;94996.69;;;5.38;41.26
29247;BME280;16272;48.188;9.964;2023-03-11T11:54:58;94996.56;;;7.17;38.77
29247;BME280;16272;48.188;9.964;2023-03-11T11:57:26;94990.06;;;7.66;39.19
29247;BME280;16272;48.188;9.964;2023-03-11T11:59:51;94988.22;;;8.10;39.59
29247;BME280;16272;48.188;9.964;2023-03-11T12:02:45;94986.84;;;8.67;38.69
29247;BME280;16272;48.188;9.964;2023-03-11T12:05:30;94977.53;;;8.20;36.86
29247;BME280;16272;48.188;9.964;2023-03-11T12:08:12;94981.25;;;8.09;39.48
29247;BME280;16272;48.188;9.964;2023-03-11T12:10:48;94976.63;;;8.12;40.12
29247;BME280;16272;48.188;9.964;2023-03-11T12:13:38;94970.59;;;9.13;36.77
29247;BME280;16272;48.188;9.964;2023-03-11T12:19:19;94967.16;;;8.01;40.97
29247;BME280;16272;48.188;9.964;2023-03-11T12:21:57;94964.03;;;8.32;37.42
29247;BME280;16272;48.188;9.964;2023-03-11T12:27:33;94962.03;;;7.99;39.62
29247;BME280;16272;48.188;9.964;2023-03-11T12:30:12;94963.91;;;8.84;40.45
29247;BME280;16272;48.188;9.964;2023-03-11T12:32:43;94959.47;;;8.16;39.38
29247;BME280;16272;48.188;9.964;2023-03-11T12:35:27;94967.25;;;8.43;39.40
29247;BME280;16272;48.188;9.964;2023-03-11T12:38:01;94964.16;;;8.56;38.27
29247;BME280;16272;48.188;9.964;2023-03-11T12:41:05;94961.25;;;8.07;40.79
29247;BME280;16272;48.188;9.964;2023-03-11T12:45:59;94947.00;;;8.77;35.73
29247;BME280;16272;48.188;9.964;2023-03-11T12:48:42;94952.28;;;7.11;37.88
29247;BME280;16272;48.188;9.964;2023-03-11T12:51:37;94944.50;;;8.75;37.85
29247;BME280;16272;48.188;9.964;2023-03-11T12:56:44;94942.50;;;8.26;38.16
29247;BME280;16272;48.188;9.964;2023-03-11T13:04:58;94941.88;;;8.06;36.35
29247;BME280;16272;48.188;9.964;2023-03-11T13:07:40;94943.53;;;8.34;39.84
29247;BME280;16272;48.188;9.964;2023-03-11T13:10:16;94930.34;;;9.09;35.96
29247;BME280;16272;48.188;9.964;2023-03-11T13:12:49;94927.34;;;8.88;37.73
29247;BME280;16272;48.188;9.964;2023-03-11T13:33:54;94934.81;;;7.54;37.82
29247;BME280;16272;48.188;9.964;2023-03-11T13:37:23;94922.84;;;8.80;37.06
29247;BME280;16272;48.188;9.964;2023-03-11T13:39:59;94928.69;;;9.41;34.62
29247;BME280;16272;48.188;9.964;2023-03-11T13:42:41;94921.25;;;9.04;37.95
29247;BME280;16272;48.188;9.964;2023-03-11T13:45:21;94921.91;;;9.63;38.79
29247;BME280;16272;48.188;9.964;2023-03-11T13:47:50;94919.88;;;8.83;36.09
29247;BME280;16272;48.188;9.964;2023-03-11T13:50:26;94931.88;;;8.44;35.33
29247;BME280;16272;48.188;9.964;2023-03-11T13:52:53;94926.25;;;8.56;35.67
29247;BME280;16272;48.188;9.964;2023-03-11T13:55:22;94933.81;;;9.84;34.08
29247;BME280;16272;48.188;9.964;2023-03-11T13:57:54;94934.34;;;9.38;35.92
29247;BME280;16272;48.188;9.964;2023-03-11T14:00:28;94941.25;;;8.90;34.23
29247;BME280;16272;48.188;9.964;2023-03-11T14:02:56;94947.34;;;8.90;38.15
29247;BME280;16272;48.188;9.964;2023-03-11T14:07:50;94944.84;;;8.80;39.67
29247;BME280;16272;48.188;9.964;2023-03-11T14:10:25;94955.50;;;8.89;37.62
29247;BME280;16272;48.188;9.964;2023-03-11T14:13:04;94951.47;;;8.76;37.72
29247;BME280;16272;48.188;9.964;2023-03-11T14:15:38;94949.75;;;8.59;35.66
29247;BME280;16272;48.188;9.964;2023-03-11T14:18:46;94959.03;;;8.28;38.21